Highgate, VT

9:26 PM EST on December 22, 2014 (GMT -0500)
Morrisville Stowe State | Change Station
CLOSE
Current Station
Airport
Location: Morrisville,
Elevation: 732 ft
Nearby Weather Stations

Elev 732 ft 44.53 °N, 72.61 °W | Updated 32 minutes ago

Overcast
Overcast
31 °F
Feels Like 28 °F
N
4
Wind Variable Wind from SE

Today
High -- | Low -- °F
--% Chance of Precip.
Yesterday
High -- | Low -- °F
Precip. -- in
7:27 AM 4:13 PM
New Moon, 1% visible
Pressure 30.33 in
Visibility 10.0 miles
Clouds Mostly Cloudy 2400 ft
Overcast 2900 ft
Windchill 28 °F
Dew Point 27 °F
Humidity 85%
Rainfall 0.00 in
Snow Depth Not available.
UV 0 out of 12
Pollen .10 out of 12
Air Quality Not available.
Flu Activity Not available.
METAR KMVL 230154Z AUTO 13003KT 10SM BKN024 OVC029 M01/M03 A3030 RMK AO2 SLP270 T10061028 TSNO

More Conditions Fewer Conditions

Pressure 30.33 in
Visibility 10.0 miles
Clouds Mostly Cloudy 2400 ft
Overcast 2900 ft
Windchill 28 °F
Dew Point 27 °F
Humidity 85%
Rainfall 0.00 in
Snow Depth Not available.
UV 0 out of 12
Pollen .10 out of 12
Air Quality Not available.
Flu Activity Not available.
METAR KMVL 230154Z AUTO 13003KT 10SM BKN024 OVC029 M01/M03 A3030 RMK AO2 SLP270 T10061028 TSNO

More Conditions Fewer Conditions

10-Day Weather Forecast

Almanac

Astronomy

Dec. 22, 2014 Rise Set
Actual Time
Civil Twilight
Nautical Twilight
Astronomical Twilight
Moon
Length of Visible Light
Length of Day
Tomorrow will be .
, % of the Moon is Illuminated

Today's Extremes

State Highs State Lows

Community

WunderPhotos

Upload Photos

1,779,761 photos uploaded!

WunderBlogs® & News

Nearby

Air Quality

  Air Quality AQ Index Pollutant
Not available.

Snow Depth

Station Depth Elevation

Earthquake Activity

City Distance Mag. Time & Date
Minimum magnitude displayed is 2.5.

Coastal Water Temperatures

Place Temperature

Nearby Weather Stations